Terminal Aerodrome Forecast
Issued by NWS Milwaukee/Sullivan, WI

Home | Current Version | Previous Version | Text Only | Print | Product List | Glossary On
Versions: 1 2 3 4 5 6 7 8 9 10 11 12 13 14 15 16 17 18 19 20 21 22 23 24 25 26 27 28 29 30 31 32 33 34 35 36 37 38
000
FTUS43 KMKX 230247 AAB
TAFMKE
TAF AMD
KMKE 230247Z 2303/2406 36005KT 4SM BR OVC005
      TEMPO 2303/2304 1SM BR OVC002
     FM230400 34004KT 4SM BR OVC008
     FM230600 33005KT 3SM BR OVC005
     FM231500 33006KT 5SM BR OVC007
     FM231800 34007KT P6SM BKN012
     FM240000 33005KT P6SM BKN020=

USA.gov is the U.S. government's official web portal to all federal, state and local government web resources and services.